createdAt,value
2018-08-30T00:01:25.300Z,31.93
2018-08-30T00:03:53.297Z,32.13
2018-08-30T00:06:21.288Z,33.10
2018-08-30T00:08:49.277Z,32.20
2018-08-30T00:11:17.301Z,32.60
2018-08-30T00:13:45.292Z,33.40
2018-08-30T00:16:13.316Z,32.23
2018-08-30T00:18:41.465Z,32.40
2018-08-30T00:21:09.460Z,34.37
2018-08-30T00:23:37.545Z,31.17
2018-08-30T00:26:05.577Z,31.17
2018-08-30T00:28:33.597Z,27.83
2018-08-30T00:31:01.617Z,31.53
2018-08-30T00:33:29.820Z,31.40
2018-08-30T00:35:57.916Z,30.10
2018-08-30T00:38:25.960Z,30.30
2018-08-30T00:40:53.960Z,31.00
2018-08-30T00:43:21.951Z,29.30
2018-08-30T00:45:50.013Z,30.50
2018-08-30T00:48:18.066Z,29.37
2018-08-30T00:50:46.044Z,29.20
2018-08-30T00:53:14.052Z,28.23
2018-08-30T00:55:42.270Z,29.27
2018-08-30T00:58:10.273Z,29.63
2018-08-30T01:00:38.280Z,28.83
2018-08-30T01:03:06.284Z,28.77
2018-08-30T01:05:34.272Z,27.87
2018-08-30T01:08:02.300Z,28.13
2018-08-30T01:10:30.412Z,28.10
2018-08-30T01:12:58.432Z,27.50
2018-08-30T01:15:27.256Z,28.33
2018-08-30T01:17:55.700Z,28.83
2018-08-30T01:20:23.864Z,29.40
2018-08-30T01:22:52.044Z,27.00
2018-08-30T01:25:20.213Z,28.23
2018-08-30T01:27:48.440Z,29.77
2018-08-30T01:30:16.560Z,30.80
2018-08-30T01:32:44.595Z,30.80
2018-08-30T01:35:12.592Z,32.63
2018-08-30T01:37:40.591Z,34.07
2018-08-30T01:40:08.631Z,31.70
2018-08-30T01:42:36.654Z,32.40
2018-08-30T01:45:04.660Z,31.00
2018-08-30T01:47:32.709Z,33.93
2018-08-30T01:50:00.805Z,31.90
2018-08-30T01:52:28.799Z,32.23
2018-08-30T01:54:56.816Z,34.13
2018-08-30T01:57:24.804Z,33.60
2018-08-30T01:59:52.814Z,30.60
2018-08-30T02:02:20.802Z,32.00
2018-08-30T02:04:48.804Z,32.10
2018-08-30T02:07:16.808Z,30.37
2018-08-30T02:09:44.804Z,30.27
2018-08-30T02:12:12.828Z,27.10
2018-08-30T02:14:40.868Z,29.17
2018-08-30T02:17:08.861Z,28.57
2018-08-30T02:19:36.864Z,28.13
2018-08-30T02:22:04.893Z,27.43
2018-08-30T02:24:32.897Z,27.80
2018-08-30T02:27:00.901Z,27.10
2018-08-30T02:29:28.917Z,29.00
2018-08-30T02:31:56.906Z,27.03
2018-08-30T02:34:24.932Z,28.30
2018-08-30T02:36:52.941Z,27.70
2018-08-30T02:39:20.945Z,28.40
2018-08-30T02:41:48.945Z,29.63
2018-08-30T02:44:16.944Z,27.83
2018-08-30T02:46:44.944Z,30.20
2018-08-30T02:49:12.967Z,30.77
2018-08-30T02:51:40.958Z,27.60
2018-08-30T02:54:08.976Z,29.30
2018-08-30T02:56:36.972Z,27.17
2018-08-30T02:59:04.985Z,28.00
2018-08-30T03:01:32.976Z,28.73
2018-08-30T03:04:01.168Z,27.90
2018-08-30T03:06:29.204Z,28.00
2018-08-30T03:08:57.207Z,27.50
2018-08-30T03:11:25.213Z,27.93
2018-08-30T03:13:53.208Z,28.30
2018-08-30T03:16:21.222Z,26.43
2018-08-30T03:18:49.229Z,27.97
2018-08-30T03:21:17.263Z,27.50
2018-08-30T03:23:45.264Z,29.10
2018-08-30T03:26:13.287Z,27.40
2018-08-30T03:28:41.289Z,27.00
2018-08-30T03:31:09.340Z,25.20
2018-08-30T03:33:37.336Z,28.93
2018-08-30T03:36:05.353Z,24.10
2018-08-30T03:38:33.340Z,24.20
2018-08-30T03:41:01.356Z,22.83
2018-08-30T03:43:29.356Z,24.97
2018-08-30T03:45:57.461Z,24.87
2018-08-30T03:48:25.448Z,21.40
2018-08-30T03:50:53.473Z,23.10
2018-08-30T03:53:21.458Z,22.63
2018-08-30T03:55:49.501Z,22.70
2018-08-30T03:58:17.528Z,24.03
2018-08-30T04:00:45.532Z,21.10
2018-08-30T04:03:13.544Z,23.73
2018-08-30T04:05:41.561Z,23.10
2018-08-30T04:08:09.552Z,23.43
2018-08-30T04:10:37.612Z,20.70
2018-08-30T04:13:05.613Z,22.37
2018-08-30T04:15:33.761Z,20.93
2018-08-30T04:18:01.797Z,19.90
2018-08-30T04:20:29.829Z,21.00
2018-08-30T04:22:57.836Z,20.30
2018-08-30T04:25:25.856Z,20.37
2018-08-30T04:27:53.875Z,21.87
2018-08-30T04:30:22.112Z,21.90
2018-08-30T04:32:50.132Z,23.53
2018-08-30T04:35:18.132Z,23.23
2018-08-30T04:37:46.128Z,23.43
2018-08-30T04:40:14.209Z,23.43
2018-08-30T04:42:42.412Z,26.50
2018-08-30T04:45:10.385Z,25.10
2018-08-30T04:47:38.600Z,26.87
2018-08-30T04:50:06.631Z,25.77
2018-08-30T04:52:34.634Z,25.80
2018-08-30T04:55:02.653Z,24.77
2018-08-30T04:57:30.778Z,27.10
2018-08-30T04:59:58.773Z,27.80
2018-08-30T05:02:26.837Z,27.27
2018-08-30T05:04:54.832Z,27.80
2018-08-30T05:07:23.605Z,27.60
2018-08-30T05:09:51.729Z,28.23
2018-08-30T05:12:19.755Z,30.43
2018-08-30T05:14:47.777Z,29.27
2018-08-30T05:17:15.784Z,27.63
2018-08-30T05:19:43.806Z,27.27
2018-08-30T05:22:12.001Z,25.90
2018-08-30T05:24:39.992Z,28.23
2018-08-30T05:27:08.000Z,27.47
2018-08-30T05:29:37.029Z,26.87
2018-08-30T05:32:05.041Z,27.30
2018-08-30T05:34:33.841Z,26.13
2018-08-30T05:37:01.873Z,26.77
2018-08-30T05:39:30.065Z,25.53
2018-08-30T05:41:58.286Z,24.60
2018-08-30T05:44:26.330Z,22.60
2018-08-30T05:46:54.563Z,22.20
2018-08-30T05:49:22.619Z,24.83
2018-08-30T05:51:50.628Z,23.23
2018-08-30T05:54:18.681Z,24.03
2018-08-30T05:56:46.709Z,22.60
2018-08-30T05:59:20.617Z,23.43
2018-08-30T06:01:48.721Z,21.43
2018-08-30T06:04:17.796Z,21.50
2018-08-30T06:06:45.882Z,17.50
2018-08-30T06:09:13.976Z,18.80
2018-08-30T06:11:42.002Z,17.73
2018-08-30T06:14:10.356Z,15.93
2018-08-30T06:16:38.598Z,16.37
2018-08-30T06:19:06.581Z,18.80
2018-08-30T06:21:34.712Z,20.70
2018-08-30T06:24:02.819Z,21.27
2018-08-30T06:26:30.896Z,22.00
2018-08-30T06:28:58.995Z,22.50
2018-08-30T06:31:27.113Z,24.30
2018-08-30T06:33:55.120Z,25.00
2018-08-30T06:36:23.108Z,26.80
2018-08-30T06:38:51.351Z,27.97
2018-08-30T06:41:19.296Z,29.97
2018-08-30T06:43:47.365Z,26.53
2018-08-30T06:46:15.356Z,27.53
2018-08-30T06:48:43.510Z,27.37
2018-08-30T06:51:11.435Z,27.53
2018-08-30T06:53:39.420Z,27.07
2018-08-30T06:56:07.420Z,25.00
2018-08-30T06:58:35.505Z,26.90
2018-08-30T07:01:03.435Z,25.73
2018-08-30T07:03:31.444Z,25.50
2018-08-30T07:05:59.475Z,26.00
2018-08-30T07:08:27.564Z,25.80
2018-08-30T07:10:55.696Z,25.53
2018-08-30T07:13:23.780Z,26.40
2018-08-30T07:15:51.785Z,24.20
2018-08-30T07:18:19.808Z,25.23
2018-08-30T07:20:48.084Z,24.40
2018-08-30T07:23:16.072Z,25.13
2018-08-30T07:25:44.100Z,23.90
2018-08-30T07:28:12.132Z,23.70
2018-08-30T07:30:40.121Z,25.13
2018-08-30T07:33:08.126Z,24.10
2018-08-30T07:35:36.221Z,22.97
2018-08-30T07:38:04.243Z,24.20
2018-08-30T07:40:32.257Z,21.70
2018-08-30T07:43:00.336Z,22.50
2018-08-30T07:45:28.380Z,23.70
2018-08-30T07:47:56.385Z,26.70
2018-08-30T07:50:24.396Z,24.30
2018-08-30T07:52:52.412Z,23.50
2018-08-30T07:55:20.604Z,23.07
2018-08-30T07:57:48.613Z,24.37
2018-08-30T08:00:17.366Z,22.57
2018-08-30T08:02:47.244Z,23.50
2018-08-30T08:05:15.445Z,21.73
2018-08-30T08:07:43.480Z,21.90
2018-08-30T08:10:11.465Z,21.43
2018-08-30T08:12:39.492Z,23.00
2018-08-30T08:15:07.457Z,21.10
2018-08-30T08:17:35.457Z,21.00
2018-08-30T08:20:03.469Z,21.00
2018-08-30T08:27:18.483Z,19.93
2018-08-30T08:29:46.481Z,21.17
2018-08-30T08:32:14.460Z,18.97
2018-08-30T08:34:42.452Z,22.40
2018-08-30T08:37:10.541Z,20.03
2018-08-30T08:39:38.629Z,19.83
2018-08-30T08:42:06.788Z,22.70
2018-08-30T08:44:34.801Z,21.57
2018-08-30T08:47:02.800Z,21.30
2018-08-30T08:49:30.844Z,20.03
2018-08-30T08:51:58.832Z,20.27
2018-08-30T08:54:26.828Z,21.27
2018-08-30T08:56:54.855Z,20.70
2018-08-30T08:59:22.842Z,19.40
2018-08-30T09:01:50.840Z,20.23
2018-08-30T09:04:18.847Z,18.60
2018-08-30T09:06:46.869Z,19.03
2018-08-30T09:09:14.888Z,20.67
2018-08-30T09:11:43.246Z,16.90
2018-08-30T09:14:11.428Z,17.60
2018-08-30T09:16:39.481Z,17.80
2018-08-30T09:19:07.732Z,17.93
2018-08-30T09:21:35.741Z,16.40
2018-08-30T09:24:03.809Z,16.77
2018-08-30T09:26:31.844Z,15.03
2018-08-30T09:28:59.868Z,16.63
2018-08-30T09:31:27.888Z,16.43
2018-08-30T09:33:56.108Z,15.93
2018-08-30T09:36:24.146Z,15.53
2018-08-30T09:38:52.173Z,14.87
2018-08-30T09:41:20.342Z,16.20
2018-08-30T09:43:48.401Z,14.40
2018-08-30T09:46:16.381Z,14.20
2018-08-30T09:48:44.389Z,14.53
2018-08-30T09:51:12.392Z,13.63
2018-08-30T09:53:40.495Z,14.43
2018-08-30T09:56:08.553Z,13.47
2018-08-30T09:58:36.577Z,13.40
2018-08-30T10:01:10.085Z,13.43
2018-08-30T10:03:38.099Z,13.73
2018-08-30T10:06:06.108Z,12.23
2018-08-30T10:08:34.204Z,12.40
2018-08-30T10:11:02.242Z,12.90
2018-08-30T10:13:30.313Z,13.03
2018-08-30T10:15:58.384Z,12.00
2018-08-30T10:18:26.304Z,12.17
2018-08-30T10:20:54.340Z,12.80
2018-08-30T10:23:22.329Z,10.83
2018-08-30T10:25:50.337Z,11.20
2018-08-30T10:28:18.331Z,10.37
2018-08-30T10:30:46.368Z,9.90
2018-08-30T10:33:14.408Z,10.30
2018-08-30T10:35:42.456Z,10.17
2018-08-30T10:38:10.449Z,9.60
2018-08-30T10:40:38.692Z,10.27
2018-08-30T10:43:06.681Z,9.47
2018-08-30T10:45:34.705Z,8.60
2018-08-30T10:48:02.698Z,9.60
2018-08-30T10:50:30.694Z,8.90
2018-08-30T10:52:58.745Z,9.50
2018-08-30T10:55:26.745Z,9.30
2018-08-30T10:57:54.751Z,7.87
2018-08-30T11:00:22.784Z,8.50
2018-08-30T11:02:50.793Z,8.90
2018-08-30T11:05:18.828Z,7.47
2018-08-30T11:07:46.898Z,8.67
2018-08-30T11:10:15.049Z,8.97
2018-08-30T11:12:43.125Z,8.57
2018-08-30T11:15:11.132Z,7.67
2018-08-30T11:17:39.140Z,8.13
2018-08-30T11:20:07.152Z,7.80
2018-08-30T11:22:35.137Z,7.00
2018-08-30T11:25:03.194Z,8.27
2018-08-30T11:27:31.368Z,7.80
2018-08-30T11:29:59.400Z,8.60
2018-08-30T11:32:27.392Z,7.40
2018-08-30T11:34:55.392Z,8.43
2018-08-30T11:37:23.469Z,6.97
2018-08-30T11:39:51.488Z,8.93
2018-08-30T11:42:19.714Z,7.37
2018-08-30T11:44:47.693Z,7.87
2018-08-30T11:47:15.684Z,8.70
2018-08-30T11:49:43.912Z,7.90
2018-08-30T11:52:12.018Z,8.13
2018-08-30T11:54:40.021Z,8.00
2018-08-30T11:57:08.045Z,9.50
2018-08-30T11:59:36.037Z,8.10
2018-08-30T12:02:04.094Z,8.07
2018-08-30T12:04:32.114Z,8.97
2018-08-30T12:07:00.140Z,9.23
2018-08-30T12:09:28.126Z,8.10
2018-08-30T12:11:56.124Z,8.60
2018-08-30T12:14:24.154Z,8.10
2018-08-30T12:16:52.216Z,8.17
2018-08-30T12:19:20.200Z,8.37
2018-08-30T12:21:48.224Z,7.67
2018-08-30T12:24:16.225Z,8.13
2018-08-30T12:26:44.280Z,7.47
2018-08-30T12:29:12.368Z,7.83
2018-08-30T12:31:40.431Z,8.10
2018-08-30T12:34:08.411Z,7.20
2018-08-30T12:36:36.499Z,7.20
2018-08-30T12:39:05.778Z,7.40
2018-08-30T12:41:33.820Z,6.53
2018-08-30T12:44:01.978Z,7.33
2018-08-30T12:46:29.961Z,6.63
2018-08-30T12:48:58.036Z,6.20
2018-08-30T12:51:26.211Z,5.67
2018-08-30T12:53:54.270Z,6.23
2018-08-30T12:56:22.482Z,5.30
2018-08-30T12:58:55.102Z,5.07
2018-08-30T13:01:23.119Z,4.63
2018-08-30T13:03:51.405Z,4.60
2018-08-30T13:06:19.904Z,3.93
2018-08-30T13:08:48.037Z,3.33
2018-08-30T13:11:16.071Z,3.60
2018-08-30T13:13:44.165Z,3.17
2018-08-30T13:16:12.097Z,3.80
2018-08-30T13:18:40.093Z,3.40
2018-08-30T13:21:08.229Z,3.07
2018-08-30T13:23:36.277Z,3.07
2018-08-30T13:26:04.466Z,3.30
2018-08-30T13:28:32.384Z,3.40
2018-08-30T13:31:00.429Z,3.00
2018-08-30T13:33:28.559Z,2.90
2018-08-30T13:35:56.489Z,3.23
2018-08-30T13:38:24.484Z,3.70
2018-08-30T13:40:52.714Z,3.83
2018-08-30T13:43:20.841Z,3.90
2018-08-30T13:45:48.808Z,4.47
2018-08-30T13:48:16.831Z,4.50
2018-08-30T13:50:44.775Z,4.40
2018-08-30T13:53:13.296Z,3.50
2018-08-30T13:55:41.390Z,3.80
2018-08-30T13:58:09.261Z,3.83
2018-08-30T14:00:37.424Z,4.00
2018-08-30T14:03:05.230Z,4.63
2018-08-30T14:05:33.369Z,3.90
2018-08-30T14:08:01.311Z,4.03
2018-08-30T14:10:29.521Z,4.33
2018-08-30T14:12:57.236Z,4.70
2018-08-30T14:15:25.465Z,4.10
2018-08-30T14:17:53.043Z,3.77
2018-08-30T14:20:21.109Z,4.40
2018-08-30T14:22:49.188Z,4.47
2018-08-30T14:25:17.192Z,4.00
2018-08-30T14:27:45.278Z,4.30
2018-08-30T14:30:13.343Z,3.23
2018-08-30T14:32:41.358Z,3.83
2018-08-30T14:35:09.353Z,3.57
2018-08-30T14:37:37.391Z,3.80
2018-08-30T14:40:05.457Z,3.50
2018-08-30T14:42:33.373Z,4.07
2018-08-30T14:45:01.380Z,3.40
2018-08-30T14:47:29.494Z,4.33
2018-08-30T14:49:57.432Z,4.90
2018-08-30T14:52:25.413Z,3.43
2018-08-30T14:54:53.405Z,3.67
2018-08-30T14:57:21.416Z,3.60
2018-08-30T14:59:49.402Z,4.33
2018-08-30T15:02:17.408Z,3.47
2018-08-30T15:04:45.396Z,3.60
2018-08-30T15:07:13.445Z,2.90
2018-08-30T15:09:41.468Z,3.40
2018-08-30T15:12:09.639Z,3.37
2018-08-30T15:14:37.580Z,3.20
2018-08-30T15:17:05.667Z,3.13
2018-08-30T15:19:33.692Z,3.33
2018-08-30T15:22:01.716Z,3.10
2018-08-30T15:24:29.713Z,4.03
2018-08-30T15:26:57.779Z,3.03
2018-08-30T15:29:25.821Z,3.33
2018-08-30T15:31:53.718Z,3.20
2018-08-30T15:34:21.708Z,2.97
2018-08-30T15:36:49.713Z,3.07
2018-08-30T15:39:17.754Z,2.87
2018-08-30T15:41:45.802Z,3.13
2018-08-30T15:44:13.849Z,2.83
2018-08-30T15:46:41.912Z,3.50
2018-08-30T15:49:09.910Z,3.00
2018-08-30T15:51:37.981Z,3.10
2018-08-30T15:54:06.193Z,3.20
2018-08-30T15:56:34.224Z,3.07
2018-08-30T15:59:02.371Z,2.80
2018-08-30T16:01:30.317Z,3.17
2018-08-30T16:03:58.333Z,2.97
2018-08-30T16:06:26.370Z,2.23
2018-08-30T16:08:54.433Z,2.10
2018-08-30T16:11:22.519Z,2.13
2018-08-30T16:13:50.565Z,2.70
2018-08-30T16:16:18.757Z,2.37
2018-08-30T16:18:46.870Z,2.27
2018-08-30T16:21:14.821Z,2.37
2018-08-30T16:23:43.017Z,2.80
2018-08-30T16:26:11.024Z,1.80
2018-08-30T16:28:39.100Z,2.10
2018-08-30T16:31:07.131Z,2.60
2018-08-30T16:33:35.147Z,2.07
2018-08-30T16:36:03.193Z,2.10
2018-08-30T16:38:31.176Z,2.50
2018-08-30T16:40:59.293Z,2.20
2018-08-30T16:43:27.330Z,2.50
2018-08-30T16:45:55.402Z,2.00
2018-08-30T16:48:23.395Z,2.93
2018-08-30T16:50:51.428Z,2.93
2018-08-30T16:53:19.462Z,2.47
2018-08-30T16:55:47.406Z,3.37
2018-08-30T16:58:15.416Z,2.60
2018-08-30T17:00:43.501Z,2.70
2018-08-30T17:03:11.549Z,3.00
2018-08-30T17:05:39.617Z,2.97
2018-08-30T17:08:07.672Z,1.97
2018-08-30T17:10:35.688Z,2.03
2018-08-30T17:13:03.702Z,2.70
2018-08-30T17:15:32.757Z,2.53
2018-08-30T17:18:00.768Z,2.63
2018-08-30T17:20:34.404Z,2.40
2018-08-30T17:23:02.391Z,2.30
2018-08-30T17:25:30.485Z,2.00
2018-08-30T17:27:58.645Z,3.07
2018-08-30T17:30:26.691Z,1.97
2018-08-30T17:32:54.685Z,2.40
2018-08-30T17:35:22.960Z,2.00
2018-08-30T17:37:51.004Z,2.20
2018-08-30T17:40:19.041Z,1.80
2018-08-30T17:42:47.384Z,3.90
2018-08-30T17:45:15.436Z,2.37
2018-08-30T17:47:43.597Z,2.10
2018-08-30T17:50:11.650Z,2.57
2018-08-30T17:52:39.606Z,2.50
2018-08-30T17:55:07.836Z,2.23
2018-08-30T17:57:35.895Z,2.73
2018-08-30T18:00:05.905Z,3.08
2018-08-30T18:02:33.904Z,2.70
2018-08-30T18:05:01.907Z,2.30
2018-08-30T18:07:29.900Z,3.03
2018-08-30T18:09:57.917Z,2.43
2018-08-30T18:12:26.293Z,2.30
2018-08-30T18:14:54.211Z,2.50
2018-08-30T18:17:22.208Z,1.97
2018-08-30T18:19:50.282Z,2.27
2018-08-30T18:22:18.289Z,2.83
2018-08-30T18:24:46.280Z,2.73
2018-08-30T18:27:14.294Z,3.20
2018-08-30T18:29:42.484Z,2.87
2018-08-30T18:32:10.512Z,2.90
2018-08-30T18:34:38.513Z,2.20
2018-08-30T18:37:06.653Z,2.33
2018-08-30T18:39:34.665Z,2.57
2018-08-30T18:42:02.684Z,2.57
2018-08-30T18:44:30.685Z,2.80
2018-08-30T18:46:58.692Z,2.00
2018-08-30T18:49:26.693Z,2.20
2018-08-30T18:51:54.684Z,2.13
2018-08-30T18:54:22.703Z,1.60
2018-08-30T18:56:50.721Z,1.93
2018-08-30T18:59:18.705Z,2.20
2018-08-30T19:01:46.764Z,2.70
2018-08-30T19:04:14.709Z,2.10
2018-08-30T19:06:42.713Z,2.20
2018-08-30T19:09:11.833Z,2.10
2018-08-30T19:11:40.318Z,2.20
2018-08-30T19:14:08.324Z,2.07
2018-08-30T19:16:41.917Z,3.00
2018-08-30T19:19:12.077Z,1.90
2018-08-30T19:21:40.200Z,2.43
2018-08-30T19:24:12.384Z,2.53
2018-08-30T19:26:40.592Z,2.20
2018-08-30T19:29:08.607Z,2.17
2018-08-30T19:31:36.676Z,2.30
2018-08-30T19:34:04.782Z,2.40
2018-08-30T19:36:33.116Z,2.37
2018-08-30T19:39:02.020Z,1.93
2018-08-30T19:41:30.139Z,2.40
2018-08-30T19:43:58.104Z,2.97
2018-08-30T19:46:26.110Z,2.20
2018-08-30T19:48:54.126Z,2.80
2018-08-30T19:51:22.165Z,2.43
2018-08-30T19:53:50.198Z,1.90
2018-08-30T19:56:18.201Z,2.17
2018-08-30T19:58:46.237Z,3.07
2018-08-30T20:01:14.273Z,1.80
2018-08-30T20:03:42.249Z,2.80
2018-08-30T20:06:17.044Z,2.00
2018-08-30T20:08:45.109Z,3.37
2018-08-30T20:11:13.232Z,2.47
2018-08-30T20:13:41.324Z,1.97
2018-08-30T20:16:09.460Z,2.70
2018-08-30T20:18:37.509Z,2.17
2018-08-30T20:21:05.541Z,2.17
2018-08-30T20:23:33.609Z,2.90
2018-08-30T20:26:01.798Z,3.20
2018-08-30T20:28:29.858Z,2.50
2018-08-30T20:30:57.913Z,2.13
2018-08-30T20:33:26.008Z,2.30
2018-08-30T20:35:54.023Z,1.97
2018-08-30T20:38:22.258Z,2.17
2018-08-30T20:40:50.432Z,2.60
2018-08-30T20:43:18.444Z,1.97
2018-08-30T20:45:46.451Z,2.20
2018-08-30T20:48:14.449Z,2.90
2018-08-30T20:50:42.452Z,2.57
2018-08-30T20:53:10.539Z,3.17
2018-08-30T20:55:38.570Z,1.70
2018-08-30T20:58:06.691Z,2.00
2018-08-30T21:00:34.695Z,2.67
2018-08-30T21:03:02.796Z,2.60
2018-08-30T21:05:30.836Z,1.93
2018-08-30T21:07:58.880Z,2.40
2018-08-30T21:10:26.908Z,2.37
2018-08-30T21:12:54.909Z,2.20
2018-08-30T21:15:22.946Z,2.00
2018-08-30T21:17:50.948Z,2.67
2018-08-30T21:20:18.947Z,2.30
2018-08-30T21:22:47.004Z,2.80
2018-08-30T21:25:15.000Z,2.27
2018-08-30T21:27:43.074Z,3.23
2018-08-30T21:30:11.113Z,2.27
2018-08-30T21:32:39.113Z,2.93
2018-08-30T21:35:07.169Z,2.20
2018-08-30T21:37:35.176Z,2.30
2018-08-30T21:40:03.213Z,1.67
2018-08-30T21:42:31.284Z,1.87
2018-08-30T21:44:59.307Z,2.90
2018-08-30T21:47:27.298Z,1.57
2018-08-30T21:49:55.421Z,2.40
2018-08-30T21:52:23.429Z,1.93
2018-08-30T21:54:51.438Z,1.70
2018-08-30T21:57:19.561Z,1.83
2018-08-30T21:59:47.592Z,2.47
2018-08-30T22:02:15.625Z,2.47
2018-08-30T22:04:43.613Z,2.07
2018-08-30T22:07:11.609Z,2.10
2018-08-30T22:09:39.608Z,2.40
2018-08-30T22:12:07.618Z,2.27
2018-08-30T22:14:35.621Z,2.03
2018-08-30T22:17:03.716Z,2.40
2018-08-30T22:19:31.824Z,1.97
2018-08-30T22:21:59.821Z,1.90
2018-08-30T22:24:27.855Z,1.60
2018-08-30T22:26:55.902Z,3.30
2018-08-30T22:29:23.941Z,1.93
2018-08-30T22:31:51.979Z,2.00
2018-08-30T22:34:20.140Z,2.23
2018-08-30T22:36:48.137Z,2.07
2018-08-30T22:39:16.144Z,2.20
2018-08-30T22:41:44.120Z,2.07
2018-08-30T22:44:12.128Z,2.60
2018-08-30T22:46:40.129Z,2.20
2018-08-30T22:49:08.134Z,1.90
2018-08-30T22:51:36.189Z,1.90
2018-08-30T22:54:04.253Z,2.53
2018-08-30T22:56:32.240Z,3.00
2018-08-30T22:59:00.524Z,2.70
2018-08-30T23:01:28.529Z,2.37
2018-08-30T23:03:56.541Z,3.20
2018-08-30T23:06:24.537Z,2.10
2018-08-30T23:08:52.529Z,1.67
2018-08-30T23:11:20.524Z,2.83
2018-08-30T23:13:48.568Z,1.80
2018-08-30T23:16:16.595Z,2.80
2018-08-30T23:18:44.603Z,2.33
2018-08-30T23:21:12.627Z,2.37
2018-08-30T23:23:40.627Z,2.00
2018-08-30T23:26:08.616Z,2.03
2018-08-30T23:28:36.660Z,1.90
2018-08-30T23:31:04.688Z,2.37
2018-08-30T23:33:32.769Z,2.20
2018-08-30T23:36:00.787Z,1.90
2018-08-30T23:38:28.773Z,2.40
2018-08-30T23:40:56.761Z,2.17
2018-08-30T23:43:24.805Z,2.00
2018-08-30T23:45:52.818Z,2.07
2018-08-30T23:48:20.816Z,2.37
2018-08-30T23:50:48.824Z,2.13
2018-08-30T23:53:16.822Z,2.23
2018-08-30T23:55:44.912Z,2.30
2018-08-30T23:58:24.424Z,2.00
